Time;durP1;ratioP1;P1;durP2;ratioP2;P2;SDS_P1;SDS_P2;PMS_P1;PMS_P2;Temp;Humidity;BMP_temperature;BMP_pressure;BME280_temperature;BME280_humidity;BME280_pressure;Samples;Min_cycle;Max_cycle;Signal;HPM_P1;HPM_P2
2021/06/30 00:01:10;;;;;;;6.43;3.45;;;17.80;99.90;;;;;;5029968;28;20040;-85
2021/06/30 00:03:36;;;;;;;4.60;3.13;;;17.80;99.90;;;;;;5049897;28;20080;-87
2021/06/30 00:06:10;;;;;;;5.53;3.50;;;17.90;99.90;;;;;;5034564;28;20052;-87
2021/06/30 00:08:42;;;;;;;5.40;3.20;;;17.90;99.90;;;;;;5053109;28;20040;-86
2021/06/30 00:11:14;;;;;;;5.40;3.40;;;17.90;99.90;;;;;;5049983;28;20045;-87
2021/06/30 00:13:41;;;;;;;5.72;3.30;;;17.80;99.90;;;;;;5057973;28;20105;-85
2021/06/30 00:16:13;;;;;;;7.60;3.05;;;17.80;99.90;;;;;;5029131;28;20041;-86
2021/06/30 00:18:45;;;;;;;6.68;3.38;;;17.80;99.90;;;;;;5047589;28;20075;-86
2021/06/30 00:21:13;;;;;;;5.97;3.40;;;17.90;99.90;;;;;;5055338;28;20484;-86
2021/06/30 00:23:40;;;;;;;7.05;3.25;;;17.90;99.90;;;;;;5056562;28;20037;-87
2021/06/30 00:26:12;;;;;;;7.45;4.07;;;19.50;99.90;;;;;;5051809;28;20037;-87
2021/06/30 00:28:39;;;;;;;8.18;5.15;;;17.90;99.90;;;;;;5056803;28;20067;-86
2021/06/30 00:31:06;;;;;;;10.85;6.78;;;17.90;99.90;;;;;;5053353;28;20045;-87
2021/06/30 00:33:33;;;;;;;13.30;7.15;;;17.90;99.90;;;;;;5056662;28;20057;-87
2021/06/30 00:36:00;;;;;;;12.45;7.55;;;17.90;99.90;;;;;;5049463;28;20032;-86
2021/06/30 00:38:33;;;;;;;13.25;7.82;;;17.90;99.90;;;;;;5048392;28;20045;-86
2021/06/30 00:41:04;;;;;;;15.88;8.55;;;17.80;99.90;;;;;;5058302;28;20045;-86
2021/06/30 00:43:31;;;;;;;17.30;9.85;;;18.60;99.90;;;;;;5057601;28;20045;-88
2021/06/30 00:45:58;;;;;;;14.23;8.43;;;17.70;99.90;;;;;;5048128;28;20045;-87
2021/06/30 00:48:30;;;;;;;14.70;9.48;;;17.80;99.90;;;;;;5066871;28;20042;-87
2021/06/30 00:50:57;;;;;;;15.15;9.20;;;17.80;99.90;;;;;;5040485;28;20085;-87
2021/06/30 00:53:23;;;;;;;18.33;9.98;;;17.80;99.90;;;;;;5046967;28;20098;-88
2021/06/30 00:55:56;;;;;;;14.00;8.60;;;17.80;99.90;;;;;;5054291;28;20041;-86
2021/06/30 00:58:28;;;;;;;14.82;8.52;;;17.80;99.90;;;;;;5053330;28;20033;-86
2021/06/30 01:00:55;;;;;;;17.45;10.50;;;19.50;99.90;;;;;;5052232;28;20533;-87
2021/06/30 01:03:22;;;;;;;17.52;10.00;;;18.80;99.90;;;;;;5055285;28;20059;-87
2021/06/30 01:05:54;;;;;;;15.32;10.13;;;17.90;99.90;;;;;;5035258;28;20048;-88
2021/06/30 01:08:20;;;;;;;18.33;9.73;;;18.00;99.90;;;;;;5053633;28;20087;-86
2021/06/30 01:10:47;;;;;;;17.13;10.35;;;18.00;99.90;;;;;;5055060;28;20052;-86
2021/06/30 01:13:20;;;;;;;19.45;10.63;;;18.10;99.90;;;;;;5056106;28;20396;-88
2021/06/30 01:15:55;;;;;;;18.13;10.55;;;18.10;99.90;;;;;;5048884;28;20061;-87
2021/06/30 01:18:30;;;;;;;16.92;10.13;;;18.10;99.90;;;;;;5060548;28;20042;-86
2021/06/30 01:20:58;;;;;;;18.35;11.05;;;18.00;99.90;;;;;;5070971;28;20044;-87
2021/06/30 01:23:27;;;;;;;20.58;10.52;;;18.10;99.90;;;;;;5073945;28;20128;-86
2021/06/30 01:25:58;;;;;;;17.92;10.43;;;18.10;99.90;;;;;;5059065;28;20048;-87
2021/06/30 01:28:30;;;;;;;19.90;11.07;;;18.10;99.90;;;;;;5037931;28;20099;-87
2021/06/30 01:31:04;;;;;;;17.92;11.50;;;18.20;99.90;;;;;;5057150;28;20044;-88
2021/06/30 01:33:36;;;;;;;18.33;11.05;;;18.10;99.90;;;;;;5056236;28;20457;-87
2021/06/30 01:36:08;;;;;;;20.90;11.05;;;18.20;99.90;;;;;;5039035;28;20495;-86
2021/06/30 01:38:41;;;;;;;18.65;11.15;;;18.20;99.90;;;;;;5056377;28;20037;-87
2021/06/30 01:41:14;;;;;;;18.90;10.93;;;18.10;99.90;;;;;;5056721;28;20041;-87
2021/06/30 01:43:41;;;;;;;18.70;11.65;;;18.10;99.90;;;;;;5037836;28;20474;-87
2021/06/30 01:46:13;;;;;;;20.20;12.02;;;18.10;99.90;;;;;;5055517;28;20048;-87
2021/06/30 01:48:45;;;;;;;24.63;11.60;;;18.10;99.90;;;;;;5034779;28;20411;-87
2021/06/30 01:51:17;;;;;;;17.25;11.25;;;18.00;99.90;;;;;;5053845;28;20475;-87
2021/06/30 01:53:45;;;;;;;18.98;11.98;;;18.00;99.90;;;;;;5057244;28;20120;-87
2021/06/30 01:56:21;;;;;;;17.92;11.30;;;18.00;99.90;;;;;;5041267;28;20059;-87
2021/06/30 01:58:56;;;;;;;18.33;11.00;;;18.00;99.90;;;;;;5052984;28;20040;-86
2021/06/30 02:01:29;;;;;;;16.25;11.15;;;18.00;99.90;;;;;;5050762;28;20094;-87
2021/06/30 02:04:02;;;;;;;19.30;10.52;;;18.50;99.90;;;;;;5048887;28;20044;-86
2021/06/30 02:06:34;;;;;;;15.68;10.55;;;17.90;99.90;;;;;;5047827;28;20095;-86
2021/06/30 02:09:09;;;;;;;19.40;10.52;;;17.90;99.90;;;;;;5047460;28;20042;-87
2021/06/30 02:11:36;;;;;;;17.33;10.32;;;17.90;99.90;;;;;;5065522;28;20047;-87
2021/06/30 02:14:09;;;;;;;17.05;10.77;;;17.90;99.90;;;;;;5049753;28;20045;-87
2021/06/30 02:16:41;;;;;;;16.13;10.30;;;17.90;99.90;;;;;;5040453;28;20045;-87
2021/06/30 02:19:13;;;;;;;19.52;10.90;;;17.90;99.90;;;;;;5050585;28;20044;-87
2021/06/30 02:21:40;;;;;;;19.98;11.30;;;17.90;99.90;;;;;;5051855;28;20043;-87
2021/06/30 02:24:08;;;;;;;17.92;11.27;;;17.90;99.90;;;;;;5051112;28;20045;-87
2021/06/30 02:26:36;;;;;;;19.35;12.27;;;17.90;99.90;;;;;;5047936;28;20091;-88
2021/06/30 02:29:04;;;;;;;18.38;12.13;;;18.00;99.90;;;;;;5050975;28;20029;-88
2021/06/30 02:31:35;;;;;;;18.02;11.52;;;19.10;99.90;;;;;;5049264;28;20120;-86
2021/06/30 02:34:07;;;;;;;20.70;12.63;;;18.00;99.90;;;;;;5052232;28;20454;-87
2021/06/30 02:36:34;;;;;;;19.23;12.25;;;17.90;99.90;;;;;;5049131;28;20048;-87
2021/06/30 02:39:06;;;;;;;20.50;12.93;;;17.90;99.90;;;;;;5050700;28;20496;-87
2021/06/30 02:41:39;;;;;;;22.77;13.38;;;17.90;99.90;;;;;;5048541;28;20110;-87
2021/06/30 02:44:06;;;;;;;22.05;13.23;;;17.80;99.90;;;;;;5057554;28;20041;-88
2021/06/30 02:46:33;;;;;;;21.35;13.63;;;17.80;99.90;;;;;;5032222;28;20426;-87
2021/06/30 02:49:05;;;;;;;29.05;14.30;;;17.80;99.90;;;;;;5046219;28;20037;-86
2021/06/30 02:51:32;;;;;;;23.00;14.00;;;17.80;99.90;;;;;;5053863;28;20043;-87
2021/06/30 02:54:04;;;;;;;24.30;15.05;;;17.80;99.90;;;;;;5052540;28;20546;-87
2021/06/30 02:56:31;;;;;;;25.20;14.88;;;17.80;99.90;;;;;;5050249;28;20049;-87
2021/06/30 02:58:59;;;;;;;25.00;16.13;;;17.80;99.90;;;;;;5045987;28;20026;-89
2021/06/30 03:01:31;;;;;;;31.38;17.67;;;17.80;99.90;;;;;;5043896;28;20050;-86
2021/06/30 03:04:02;;;;;;;24.60;15.45;;;17.80;99.90;;;;;;5042301;28;20045;-87
2021/06/30 03:06:34;;;;;;;30.15;16.08;;;17.80;99.90;;;;;;5049080;28;20045;-88
2021/06/30 03:09:06;;;;;;;28.45;16.75;;;17.90;99.90;;;;;;5044864;28;20033;-89
2021/06/30 03:11:39;;;;;;;31.98;18.02;;;17.80;99.90;;;;;;5047343;28;20086;-90
2021/06/30 03:14:12;;;;;;;26.63;16.08;;;17.90;99.90;;;;;;5061908;28;20033;-90
2021/06/30 03:16:43;;;;;;;28.92;16.10;;;17.90;99.90;;;;;;5046423;28;20041;-87
2021/06/30 03:19:10;;;;;;;26.05;15.77;;;17.90;99.90;;;;;;5049914;28;20041;-86
2021/06/30 03:21:42;;;;;;;28.52;17.50;;;17.90;99.90;;;;;;5045010;28;20049;-87
2021/06/30 03:24:14;;;;;;;31.58;17.30;;;17.90;99.90;;;;;;5051717;28;20040;-87
2021/06/30 03:26:46;;;;;;;27.30;16.67;;;17.90;99.90;;;;;;5051417;28;20561;-88
2021/06/30 03:29:19;;;;;;;28.13;15.88;;;18.00;99.90;;;;;;5052195;28;20048;-87
2021/06/30 03:31:51;;;;;;;26.20;15.80;;;18.00;99.90;;;;;;5049018;28;20045;-88
2021/06/30 03:34:18;;;;;;;27.60;16.42;;;18.00;99.90;;;;;;5054417;28;20041;-88
2021/06/30 03:36:49;;;;;;;30.55;17.58;;;18.00;99.90;;;;;;5049695;28;20053;-88
2021/06/30 03:39:21;;;;;;;28.10;15.85;;;18.00;99.90;;;;;;5044443;28;20045;-88
2021/06/30 03:41:53;;;;;;;26.77;15.52;;;17.90;99.90;;;;;;5047505;28;20099;-89
2021/06/30 03:44:21;;;;;;;26.55;16.60;;;17.90;99.90;;;;;;5044229;28;20048;-88
2021/06/30 03:49:24;;;;;;;28.17;16.83;;;17.80;99.90;;;;;;5060741;28;20056;-82
2021/06/30 03:51:51;;;;;;;28.10;15.95;;;19.20;99.90;;;;;;5049209;28;20127;-82
2021/06/30 03:54:18;;;;;;;26.65;16.15;;;17.90;99.90;;;;;;5047682;28;20100;-76
2021/06/30 03:56:50;;;;;;;30.77;15.45;;;18.00;99.90;;;;;;5046393;28;20052;-83
2021/06/30 03:59:17;;;;;;;28.35;16.25;;;17.90;99.90;;;;;;5074788;28;20630;-82
2021/06/30 04:01:46;;;;;;;27.17;15.07;;;17.90;99.90;;;;;;5040187;28;20434;-83
2021/06/30 04:04:14;;;;;;;24.52;14.55;;;17.90;99.90;;;;;;5045173;28;20112;-81
2021/06/30 04:06:41;;;;;;;25.15;14.18;;;18.00;99.90;;;;;;5047989;28;20541;-84
2021/06/30 04:09:08;;;;;;;22.42;12.90;;;18.00;99.90;;;;;;5061107;28;20124;-82
2021/06/30 04:11:35;;;;;;;23.98;13.75;;;17.90;99.90;;;;;;5049318;28;20093;-84
2021/06/30 04:14:03;;;;;;;23.48;13.60;;;17.90;99.90;;;;;;5061422;28;20143;-83
2021/06/30 04:16:35;;;;;;;24.65;14.32;;;17.90;99.90;;;;;;5044655;28;20056;-84
2021/06/30 04:19:04;;;;;;;25.45;13.93;;;17.90;99.90;;;;;;5048406;28;20048;-85
2021/06/30 04:21:31;;;;;;;20.77;13.20;;;17.90;99.90;;;;;;5045571;28;20104;-85
2021/06/30 04:23:58;;;;;;;25.98;13.75;;;17.90;99.90;;;;;;5037647;28;20109;-84
2021/06/30 04:26:25;;;;;;;23.98;13.15;;;17.90;99.90;;;;;;5056137;28;20053;-83
2021/06/30 04:28:52;;;;;;;19.70;12.75;;;18.00;99.90;;;;;;5047855;28;20123;-84
2021/06/30 04:31:20;;;;;;;20.17;11.85;;;18.20;99.90;;;;;;5047818;28;20133;-84
2021/06/30 04:33:47;;;;;;;18.80;11.27;;;18.10;99.90;;;;;;5044955;28;20136;-85
2021/06/30 04:36:15;;;;;;;21.13;12.35;;;18.10;99.90;;;;;;5048304;28;20100;-83
2021/06/30 04:38:42;;;;;;;20.80;11.82;;;18.10;99.90;;;;;;5044999;28;20041;-85
2021/06/30 04:41:10;;;;;;;19.88;11.73;;;17.90;99.90;;;;;;5045410;28;20135;-84
2021/06/30 04:43:39;;;;;;;21.00;11.85;;;17.80;99.90;;;;;;5053091;28;20127;-85
2021/06/30 04:46:07;;;;;;;19.40;10.90;;;17.90;99.90;;;;;;5049332;28;20195;-85
2021/06/30 04:48:34;;;;;;;17.80;10.45;;;17.80;99.90;;;;;;5043847;28;20045;-84
2021/06/30 04:51:01;;;;;;;17.13;10.70;;;17.80;99.90;;;;;;5041638;28;20085;-85
2021/06/30 04:53:30;;;;;;;18.48;11.38;;;17.90;99.90;;;;;;5041462;28;20124;-85
2021/06/30 04:55:58;;;;;;;16.70;10.20;;;17.90;99.90;;;;;;5048825;28;20125;-86
2021/06/30 04:58:25;;;;;;;19.27;11.48;;;17.90;99.90;;;;;;5046259;28;20132;-84
2021/06/30 05:00:54;;;;;;;20.30;10.75;;;17.90;99.90;;;;;;5046260;28;20097;-86
2021/06/30 05:03:21;;;;;;;18.83;10.30;;;18.30;99.90;;;;;;5049523;28;20076;-85
2021/06/30 05:05:48;;;;;;;16.90;10.20;;;17.70;99.90;;;;;;5047638;28;20108;-85
2021/06/30 05:08:15;;;;;;;17.38;10.20;;;17.70;99.90;;;;;;5046901;28;20079;-85
2021/06/30 05:10:43;;;;;;;14.45;9.77;;;17.80;99.90;;;;;;5052936;28;20101;-85
2021/06/30 05:13:10;;;;;;;16.55;9.57;;;17.80;99.90;;;;;;5050603;28;20097;-85
2021/06/30 05:15:37;;;;;;;16.38;9.45;;;17.90;99.90;;;;;;5054143;28;20093;-85
2021/06/30 05:18:04;;;;;;;21.50;10.10;;;17.80;99.90;;;;;;5051018;28;20485;-79
2021/06/30 05:20:30;;;;;;;16.25;9.70;;;17.80;99.90;;;;;;5051601;28;20097;-83
2021/06/30 05:22:57;;;;;;;20.35;9.57;;;17.90;99.90;;;;;;5055955;28;20112;-82
2021/06/30 05:25:25;;;;;;;16.83;10.25;;;17.80;99.90;;;;;;5053988;28;20056;-83
2021/06/30 05:27:58;;;;;;;15.90;9.98;;;17.80;99.90;;;;;;5050143;28;20053;-83
2021/06/30 05:30:25;;;;;;;18.75;9.77;;;17.80;99.90;;;;;;5057246;28;20164;-82
2021/06/30 05:32:51;;;;;;;14.82;9.90;;;17.80;99.90;;;;;;5053405;28;20048;-85
2021/06/30 05:35:18;;;;;;;13.25;9.05;;;17.80;99.90;;;;;;5051102;28;20044;-85
2021/06/30 05:37:45;;;;;;;14.15;8.98;;;17.80;99.90;;;;;;5053406;28;20084;-83
2021/06/30 05:40:12;;;;;;;14.48;8.85;;;17.80;99.90;;;;;;5056226;28;20049;-84
2021/06/30 05:42:41;;;;;;;13.63;8.60;;;17.70;99.90;;;;;;5053573;28;20518;-83
2021/06/30 05:45:15;;;;;;;16.27;9.38;;;17.70;99.90;;;;;;5055044;28;20196;-83
2021/06/30 05:47:42;;;;;;;13.57;8.30;;;17.70;99.90;;;;;;5051475;28;20099;-83
2021/06/30 05:50:11;;;;;;;13.60;8.40;;;17.80;99.90;;;;;;5055350;28;20045;-84
2021/06/30 05:52:38;;;;;;;16.67;7.43;;;17.80;99.90;;;;;;5051965;28;20103;-87
2021/06/30 05:55:07;;;;;;;11.43;7.32;;;17.70;99.90;;;;;;5055265;28;20115;-85
2021/06/30 05:57:35;;;;;;;13.88;6.95;;;17.70;99.90;;;;;;5053419;28;20075;-82
2021/06/30 06:00:05;;;;;;;11.82;6.93;;;17.70;99.90;;;;;;5053261;28;20550;-85
2021/06/30 06:02:33;;;;;;;12.32;7.13;;;17.70;99.90;;;;;;5052809;28;20110;-84
2021/06/30 06:04:59;;;;;;;12.82;7.03;;;17.70;99.90;;;;;;5055377;28;20143;-85
2021/06/30 06:07:26;;;;;;;9.95;5.80;;;18.10;99.90;;;;;;5059837;28;20084;-86
2021/06/30 06:09:53;;;;;;;11.98;6.40;;;19.00;99.90;;;;;;5055062;28;20099;-85
2021/06/30 06:12:25;;;;;;;9.05;6.28;;;17.60;99.90;;;;;;5057245;28;20045;-83
2021/06/30 06:14:52;;;;;;;10.95;6.78;;;17.60;99.90;;;;;;5054600;28;20093;-85
2021/06/30 06:17:19;;;;;;;9.85;6.38;;;17.50;99.90;;;;;;5050444;28;20147;-85
2021/06/30 06:19:47;;;;;;;10.25;6.32;;;17.60;99.90;;;;;;5060964;28;20044;-85
2021/06/30 06:22:14;;;;;;;9.20;6.05;;;17.50;99.90;;;;;;5052052;28;20060;-83
2021/06/30 06:24:41;;;;;;;12.43;6.40;;;17.50;99.90;;;;;;5053158;28;20069;-80
2021/06/30 06:27:07;;;;;;;9.98;6.10;;;17.60;99.90;;;;;;5049624;28;20073;-86
2021/06/30 06:29:35;;;;;;;8.70;6.10;;;17.60;99.90;;;;;;5053525;28;20604;-83
2021/06/30 06:32:03;;;;;;;10.90;6.28;;;17.60;99.90;;;;;;5051109;28;20116;-84
2021/06/30 06:34:30;;;;;;;11.55;6.15;;;17.70;99.90;;;;;;5050401;28;20037;-86
2021/06/30 06:37:00;;;;;;;12.40;6.22;;;17.80;99.90;;;;;;5049755;28;20543;-85
2021/06/30 06:39:28;;;;;;;9.30;6.10;;;17.70;99.90;;;;;;5058188;28;20095;-82
2021/06/30 06:41:55;;;;;;;10.65;5.93;;;17.70;99.90;;;;;;5052358;28;20132;-83
2021/06/30 06:44:22;;;;;;;8.80;5.63;;;17.80;99.90;;;;;;5049420;28;20081;-86
2021/06/30 06:46:49;;;;;;;11.05;6.20;;;17.90;99.90;;;;;;5053768;28;20437;-83
2021/06/30 06:49:16;;;;;;;8.20;5.50;;;18.00;99.90;;;;;;5056727;28;20122;-85
2021/06/30 06:51:43;;;;;;;9.02;5.93;;;18.00;99.90;;;;;;5054333;28;20490;-86
2021/06/30 06:54:12;;;;;;;9.10;5.65;;;17.90;99.90;;;;;;5048156;28;20179;-83
2021/06/30 06:56:39;;;;;;;8.82;5.53;;;18.00;99.90;;;;;;5048357;28;20112;-85
2021/06/30 06:59:05;;;;;;;11.18;6.20;;;18.10;99.90;;;;;;5046804;28;20104;-85
2021/06/30 07:01:32;;;;;;;9.38;5.80;;;18.10;99.90;;;;;;5045462;28;20120;-85
2021/06/30 07:03:59;;;;;;;11.43;5.65;;;18.10;99.90;;;;;;5048316;28;20151;-85
2021/06/30 07:06:26;;;;;;;10.68;5.88;;;18.10;99.90;;;;;;5045954;28;20475;-86
2021/06/30 07:08:53;;;;;;;9.23;5.63;;;18.20;99.90;;;;;;5049717;28;20100;-85
2021/06/30 07:11:21;;;;;;;9.27;5.70;;;18.30;99.90;;;;;;5055071;28;20116;-84
2021/06/30 07:13:48;;;;;;;9.45;6.30;;;18.30;99.90;;;;;;5061177;28;20123;-85
2021/06/30 07:16:15;;;;;;;13.30;6.72;;;18.20;99.90;;;;;;5051647;28;20590;-82
2021/06/30 07:18:41;;;;;;;10.13;6.10;;;18.30;99.90;;;;;;5066110;28;20132;-83
2021/06/30 07:21:09;;;;;;;9.65;6.53;;;18.10;99.90;;;;;;5052946;28;20566;-83
2021/06/30 07:23:37;;;;;;;14.93;6.55;;;18.10;99.90;;;;;;5044602;28;21533;-84
2021/06/30 07:26:04;;;;;;;11.50;6.43;;;18.20;99.90;;;;;;5049197;28;20123;-85
2021/06/30 07:28:33;;;;;;;14.15;6.75;;;18.40;99.90;;;;;;5045951;28;20053;-85
2021/06/30 07:30:59;;;;;;;10.32;6.35;;;18.60;99.90;;;;;;5053082;28;20144;-84
2021/06/30 07:33:26;;;;;;;9.80;6.60;;;18.50;99.90;;;;;;5046225;28;20243;-84
2021/06/30 07:35:53;;;;;;;11.15;6.95;;;18.70;99.90;;;;;;5035785;28;20105;-86
2021/06/30 07:38:20;;;;;;;9.02;6.85;;;18.70;99.90;;;;;;5042280;28;20131;-83
2021/06/30 07:40:47;;;;;;;11.30;6.85;;;18.80;99.90;;;;;;5044472;28;20108;-83
2021/06/30 07:43:14;;;;;;;12.25;6.90;;;18.80;99.90;;;;;;5051234;28;20124;-86
2021/06/30 07:45:43;;;;;;;11.25;6.95;;;18.70;99.90;;;;;;5046718;28;20110;-84
2021/06/30 07:48:10;;;;;;;11.82;7.25;;;18.60;99.90;;;;;;5038165;28;20053;-83
2021/06/30 07:50:37;;;;;;;12.02;7.82;;;18.70;99.90;;;;;;5049545;28;20135;-83
2021/06/30 07:53:04;;;;;;;10.52;7.47;;;18.70;99.90;;;;;;5049468;28;20049;-82
2021/06/30 07:55:31;;;;;;;12.18;7.60;;;18.80;99.90;;;;;;5046647;28;20053;-85
2021/06/30 07:57:58;;;;;;;11.63;8.00;;;18.80;99.90;;;;;;5047435;28;20053;-85
2021/06/30 08:00:25;;;;;;;13.65;8.25;;;18.90;99.90;;;;;;5043532;28;20087;-83
2021/06/30 08:02:54;;;;;;;12.25;8.25;;;19.10;99.90;;;;;;5042896;28;20037;-84
2021/06/30 08:05:20;;;;;;;17.10;8.65;;;19.20;99.90;;;;;;5041063;28;20067;-85
2021/06/30 08:07:47;;;;;;;15.70;9.02;;;19.20;99.90;;;;;;5052180;28;20053;-85
2021/06/30 08:10:14;;;;;;;14.93;8.35;;;19.30;99.90;;;;;;5045191;28;20110;-84
2021/06/30 08:12:41;;;;;;;13.77;9.70;;;19.30;99.90;;;;;;5049568;28;20040;-85
2021/06/30 08:15:10;;;;;;;15.73;9.35;;;19.30;99.90;;;;;;5044178;28;20048;-83
2021/06/30 08:17:38;;;;;;;14.88;10.50;;;19.10;99.90;;;;;;5051085;28;20041;-84
2021/06/30 08:20:08;;;;;;;17.60;10.60;;;19.00;99.90;;;;;;5044834;28;20049;-81
2021/06/30 08:22:35;;;;;;;15.73;10.23;;;19.00;99.90;;;;;;5047936;28;20099;-82
2021/06/30 08:25:10;;;;;;;17.40;10.85;;;19.10;99.90;;;;;;5035544;28;20068;-86
2021/06/30 08:27:38;;;;;;;14.45;10.73;;;19.20;99.90;;;;;;5040940;28;20053;-83
2021/06/30 08:30:07;;;;;;;15.95;11.18;;;19.20;99.90;;;;;;5031352;28;20053;-82
2021/06/30 08:32:34;;;;;;;14.45;11.05;;;19.40;99.90;;;;;;5036167;28;20060;-85
2021/06/30 08:35:01;;;;;;;14.57;11.05;;;19.50;99.90;;;;;;5041546;28;20053;-84
2021/06/30 08:37:33;;;;;;;16.88;12.25;;;19.70;99.90;;;;;;5044909;28;20044;-84
2021/06/30 08:40:00;;;;;;;17.65;11.73;;;19.80;99.90;;;;;;5046877;28;20045;-84
2021/06/30 08:42:27;;;;;;;17.35;13.15;;;19.90;99.90;;;;;;5043822;28;20041;-85
2021/06/30 08:44:54;;;;;;;17.08;12.00;;;20.00;99.90;;;;;;5045198;28;20048;-84
2021/06/30 08:47:25;;;;;;;20.17;12.93;;;20.40;99.90;;;;;;5043843;28;20044;-81
2021/06/30 08:49:52;;;;;;;19.58;14.25;;;20.50;99.90;;;;;;5045257;28;20048;-86
2021/06/30 08:52:20;;;;;;;18.27;13.02;;;20.50;99.90;;;;;;5047242;28;20037;-84
2021/06/30 08:54:50;;;;;;;17.20;12.60;;;20.80;99.90;;;;;;5044566;28;20053;-83
2021/06/30 08:57:18;;;;;;;18.15;12.93;;;21.60;99.90;;;;;;5046162;28;20040;-84
2021/06/30 08:59:47;;;;;;;16.40;10.80;;;21.00;99.90;;;;;;5032774;28;20600;-83
2021/06/30 09:02:15;;;;;;;15.88;11.02;;;20.90;99.90;;;;;;5041803;28;20506;-84
2021/06/30 09:04:43;;;;;;;14.60;10.57;;;20.80;99.90;;;;;;5043477;28;20103;-83
2021/06/30 09:07:10;;;;;;;16.45;11.70;;;21.00;99.90;;;;;;5045329;28;20056;-86
2021/06/30 09:09:39;;;;;;;16.50;11.18;;;20.70;99.90;;;;;;5044359;28;20053;-85
2021/06/30 09:12:07;;;;;;;15.15;10.82;;;20.80;99.90;;;;;;5037332;28;20087;-85
2021/06/30 09:14:40;;;;;;;16.90;11.73;;;20.90;99.90;;;;;;5047889;28;20479;-86
2021/06/30 09:17:21;;;;;;;17.15;11.95;;;20.80;99.90;;;;;;5042869;28;20049;-82
2021/06/30 09:19:56;;;;;;;15.30;11.45;;;20.80;99.90;;;;;;5043496;28;20056;-85
2021/06/30 09:22:26;;;;;;;13.35;10.20;;;20.80;99.90;;;;;;5043211;28;20085;-86
2021/06/30 09:24:55;;;;;;;17.08;11.63;;;20.80;99.90;;;;;;5059468;28;20056;-86
2021/06/30 09:27:39;;;;;;;14.90;10.63;;;21.00;99.90;;;;;;5041875;28;20056;-84
2021/06/30 09:30:08;;;;;;;14.55;11.10;;;21.50;99.90;;;;;;5041093;28;20057;-84
2021/06/30 09:32:35;;;;;;;16.35;11.50;;;21.50;99.90;;;;;;5035487;28;20095;-85
2021/06/30 09:35:22;;;;;;;15.43;12.43;;;21.50;99.90;;;;;;5040977;28;20049;-84
2021/06/30 09:37:49;;;;;;;17.13;12.35;;;21.20;99.90;;;;;;5044285;28;20243;-85
2021/06/30 09:40:16;;;;;;;17.10;12.18;;;21.10;99.90;;;;;;5035600;28;20091;-85
2021/06/30 09:42:45;;;;;;;18.10;12.45;;;22.70;99.90;;;;;;5040798;28;20053;-86
2021/06/30 09:45:15;;;;;;;16.67;13.30;;;20.90;99.90;;;;;;5042179;28;20075;-83
2021/06/30 09:47:44;;;;;;;16.08;11.52;;;21.00;99.90;;;;;;5035722;28;20037;-85
2021/06/30 09:50:11;;;;;;;15.27;11.68;;;21.00;99.90;;;;;;5041495;28;20049;-84
2021/06/30 09:52:40;;;;;;;14.02;11.02;;;20.70;99.90;;;;;;5042778;28;20049;-85
2021/06/30 09:55:27;;;;;;;16.50;11.27;;;20.70;99.90;;;;;;5046036;28;20101;-84
2021/06/30 09:57:58;;;;;;;18.33;11.38;;;20.90;99.90;;;;;;5044652;28;20045;-84
2021/06/30 10:00:29;;;;;;;14.18;10.30;;;21.00;99.90;;;;;;5041996;28;20101;-83
2021/06/30 10:02:56;;;;;;;17.85;11.88;;;20.90;99.90;;;;;;5042596;28;20509;-85
2021/06/30 10:05:28;;;;;;;15.23;11.63;;;20.80;99.90;;;;;;5040469;28;20049;-84
2021/06/30 10:08:11;;;;;;;15.55;11.48;;;20.80;99.90;;;;;;5046300;28;20106;-86
2021/06/30 10:10:39;;;;;;;14.80;11.18;;;21.20;99.90;;;;;;5050482;28;20107;-86
2021/06/30 10:13:07;;;;;;;14.55;10.82;;;21.60;99.90;;;;;;5045476;28;20087;-85
2021/06/30 10:15:34;;;;;;;16.23;12.18;;;21.80;99.90;;;;;;5041485;28;20063;-85
2021/06/30 10:18:03;;;;;;;17.35;11.85;;;21.90;99.90;;;;;;5054594;28;20056;-84
2021/06/30 10:20:40;;;;;;;16.17;11.40;;;21.90;99.90;;;;;;5050068;28;20036;-84
2021/06/30 10:23:07;;;;;;;15.15;11.80;;;22.00;99.90;;;;;;5041243;28;20468;-85
2021/06/30 10:25:35;;;;;;;14.43;10.50;;;22.00;99.90;;;;;;5041307;28;20563;-84
2021/06/30 10:28:02;;;;;;;17.08;12.05;;;22.10;99.90;;;;;;5043036;28;20049;-83
2021/06/30 10:30:30;;;;;;;15.65;11.75;;;22.30;99.90;;;;;;5043725;28;20305;-86
2021/06/30 10:32:59;;;;;;;16.35;11.30;;;22.30;99.90;;;;;;5037408;28;20049;-85
2021/06/30 10:35:32;;;;;;;14.02;10.73;;;22.40;99.90;;;;;;5036744;28;20045;-85
2021/06/30 10:38:00;;;;;;;15.57;11.17;;;22.50;99.90;;;;;;5036302;28;20072;-85
2021/06/30 10:40:31;;;;;;;13.90;10.82;;;22.20;99.90;;;;;;5042918;28;20056;-83
2021/06/30 10:43:08;;;;;;;14.82;11.35;;;22.30;99.90;;;;;;5027560;28;20045;-85
2021/06/30 10:45:37;;;;;;;15.93;11.25;;;22.60;99.90;;;;;;5036007;28;20054;-85
2021/06/30 10:48:05;;;;;;;15.87;11.43;;;22.90;99.90;;;;;;5035244;28;20045;-85
2021/06/30 10:50:35;;;;;;;14.43;11.18;;;23.20;99.90;;;;;;5038081;28;20311;-85
2021/06/30 10:53:36;;;;;;;14.52;10.90;;;23.30;99.90;;;;;;5036630;28;20048;-85
2021/06/30 10:56:09;;;;;;;14.65;10.55;;;22.80;99.90;;;;;;5043576;28;20053;-85
2021/06/30 10:58:38;;;;;;;13.75;10.68;;;22.60;99.90;;;;;;5035793;28;20453;-86
2021/06/30 11:01:13;;;;;;;13.75;10.65;;;22.60;99.90;;;;;;5041639;28;20091;-82
2021/06/30 11:04:01;;;;;;;11.35;9.73;;;22.50;99.90;;;;;;5037388;28;20086;-82
2021/06/30 11:06:30;;;;;;;12.70;8.93;;;23.00;99.90;;;;;;5050761;28;20056;-84
2021/06/30 11:09:05;;;;;;;13.57;9.63;;;23.40;99.90;;;;;;5036184;28;20052;-85
2021/06/30 11:12:03;;;;;;;11.20;8.75;;;22.90;99.90;;;;;;5040220;28;20044;-83
2021/06/30 11:14:41;;;;;;;11.63;8.88;;;22.70;99.90;;;;;;5026816;28;20056;-85
2021/06/30 11:17:10;;;;;;;13.52;9.68;;;22.30;99.90;;;;;;5044025;28;20098;-83
2021/06/30 11:19:45;;;;;;;11.13;9.10;;;22.30;99.90;;;;;;5040680;28;20526;-85
2021/06/30 11:22:32;;;;;;;9.95;8.38;;;22.60;99.90;;;;;;5036125;28;20064;-86
2021/06/30 11:25:03;;;;;;;11.35;8.68;;;22.80;99.90;;;;;;5033794;28;20045;-85
2021/06/30 11:27:43;;;;;;;13.00;9.40;;;23.00;99.90;;;;;;5025251;28;20434;-86
2021/06/30 11:30:12;;;;;;;12.07;9.73;;;23.10;99.90;;;;;;5046234;28;20286;-84
2021/06/30 11:32:45;;;;;;;10.40;8.52;;;22.50;99.90;;;;;;5035427;28;20048;-85
2021/06/30 11:35:25;;;;;;;12.60;7.80;;;22.80;99.90;;;;;;5036815;28;20072;-83
2021/06/30 11:38:11;;;;;;;12.25;8.07;;;22.70;99.90;;;;;;5044103;28;20056;-85
2021/06/30 11:40:42;;;;;;;11.73;7.53;;;22.70;99.90;;;;;;5033419;28;20405;-85
2021/06/30 11:43:12;;;;;;;10.85;7.38;;;23.20;99.90;;;;;;5033852;28;20041;-85
2021/06/30 11:45:39;;;;;;;12.80;7.25;;;23.70;99.90;;;;;;5034045;28;20061;-82
2021/06/30 11:48:10;;;;;;;8.23;6.40;;;23.60;99.90;;;;;;5035075;28;20053;-85
2021/06/30 11:50:49;;;;;;;8.30;6.63;;;24.00;99.90;;;;;;5035327;28;20049;-85
2021/06/30 11:53:40;;;;;;;8.63;6.43;;;24.00;99.90;;;;;;5034358;28;20577;-85
2021/06/30 11:56:08;;;;;;;8.85;6.72;;;23.90;99.90;;;;;;5032324;28;20049;-85
2021/06/30 11:58:40;;;;;;;8.93;5.97;;;23.70;99.90;;;;;;5039568;28;20041;-85
2021/06/30 12:01:18;;;;;;;7.40;5.80;;;23.90;99.90;;;;;;5033013;28;20127;-84
2021/06/30 12:03:47;;;;;;;5.65;4.28;;;23.90;99.90;;;;;;5033262;28;20051;-86
2021/06/30 12:06:24;;;;;;;6.97;4.93;;;23.40;99.90;;;;;;5031494;28;20424;-83
2021/06/30 12:09:12;;;;;;;6.00;4.40;;;23.40;99.90;;;;;;5024519;28;20053;-85
2021/06/30 12:11:41;;;;;;;6.32;4.47;;;23.50;99.90;;;;;;5032293;28;20498;-84
2021/06/30 12:14:10;;;;;;;6.95;3.90;;;23.60;99.90;;;;;;5040054;28;20045;-85
2021/06/30 12:16:42;;;;;;;5.72;4.00;;;23.90;99.90;;;;;;5029104;28;20059;-85
2021/06/30 12:19:12;;;;;;;5.97;4.32;;;24.20;99.90;;;;;;5032954;28;20095;-85
2021/06/30 12:21:40;;;;;;;6.43;4.63;;;23.90;99.90;;;;;;5036106;28;20053;-85
2021/06/30 12:24:19;;;;;;;7.03;4.20;;;23.80;99.90;;;;;;5036375;28;20079;-85
2021/06/30 12:27:01;;;;;;;6.05;4.40;;;23.60;99.90;;;;;;5036549;28;20040;-84
2021/06/30 12:29:29;;;;;;;6.38;4.25;;;23.80;99.90;;;;;;5026447;28;20056;-85
2021/06/30 12:31:56;;;;;;;7.03;4.90;;;24.10;99.90;;;;;;5035751;28;20041;-86
2021/06/30 12:34:25;;;;;;;6.30;4.82;;;24.10;99.30;;;;;;5034963;28;20442;-84
2021/06/30 12:36:52;;;;;;;6.10;4.50;;;25.10;99.90;;;;;;5046191;28;20071;-85
2021/06/30 12:39:21;;;;;;;6.88;4.03;;;23.90;99.90;;;;;;5042743;28;20448;-85
2021/06/30 12:41:53;;;;;;;5.93;4.30;;;24.10;99.90;;;;;;5041592;28;20041;-84
2021/06/30 12:44:21;;;;;;;6.28;4.55;;;24.60;99.90;;;;;;5030038;28;20563;-86
2021/06/30 12:47:07;;;;;;;5.88;4.60;;;24.30;98.80;;;;;;5055223;28;20112;-86
2021/06/30 12:49:36;;;;;;;6.97;4.50;;;23.50;99.40;;;;;;5037058;28;20448;-83